Laceys Spring, Alabama
Current Conditions -  °F | °C
As of 12:58 AM on Thursday 18 Dec 2014 (Local Time) from KHUA Reporting Station
Clear Clear  
Wind Chill: -2°   Ceiling: Unl
Heat Index:   Visibility: 10mi
Dew Point: -1°   Wind: 9mph
Humidity: 81%   Direction: 30°NNE
Pressure: 30.2"   Gusts: NA
Location:  34.53°N, 86.6°W
Report Text: KHUA 180658Z AUTO 03008KT 10SM CLR 02/M01 A3020 RMK AO2 SLP231
Loading
Personal Weather Stations






























Interactive Weather Map New forecast layout! Learn more

10-Day Weather Forecast

Advertisements
Track Severe Weather on mobile